Time;durP1;ratioP1;P1;durP2;ratioP2;P2;SDS_P1;SDS_P2;PMS_P1;PMS_P2;Temp;Humidity;BMP_temperature;BMP_pressure;BME280_temperature;BME280_humidity;BME280_pressure;Samples;Min_cycle;Max_cycle;Signal;HPM_P1;HPM_P2
2023/03/20 00:01:12;;;;;;;31.58;17.00;;;;;;;10.21;100.00;99059.81;5142438;27;20046;-94
2023/03/20 00:03:39;;;;;;;30.05;16.83;;;;;;;10.31;100.00;99090.66;5143186;27;20043;-95
2023/03/20 00:06:12;;;;;;;21.10;12.63;;;;;;;10.18;100.00;99078.50;5142060;27;20042;-95
2023/03/20 00:08:38;;;;;;;24.80;13.18;;;;;;;10.19;100.00;99077.56;5141157;27;20420;-95
2023/03/20 00:11:04;;;;;;;24.95;13.65;;;;;;;10.25;100.00;99099.59;5140883;27;20039;-94
2023/03/20 00:13:30;;;;;;;24.58;12.68;;;;;;;10.18;100.00;99084.69;5142273;27;20039;-95
2023/03/20 00:15:56;;;;;;;20.10;11.25;;;;;;;10.23;100.00;99092.56;5141503;27;20036;-96
2023/03/20 00:18:25;;;;;;;18.77;10.15;;;;;;;10.15;100.00;99091.81;5141913;27;20054;-96
2023/03/20 00:20:54;;;;;;;25.35;11.00;;;;;;;10.01;100.00;99066.41;5142268;27;20035;-93
2023/03/20 00:23:20;;;;;;;19.63;11.30;;;;;;;10.13;100.00;99089.22;5142432;27;20373;-96
2023/03/20 00:25:46;;;;;;;24.85;11.65;;;;;;;9.98;100.00;99068.28;5143297;27;20116;-95
2023/03/20 00:28:36;;;;;;;18.45;10.45;;;;;;;10.04;100.00;99079.66;5141234;27;20039;-95
2023/03/20 00:31:02;;;;;;;22.35;11.38;;;;;;;9.99;100.00;99065.56;5132268;27;20039;-95
2023/03/20 00:33:30;;;;;;;22.85;11.13;;;;;;;10.06;100.00;99069.88;5141631;27;20146;-95
2023/03/20 00:35:57;;;;;;;18.30;10.90;;;;;;;10.01;100.00;99070.84;5140827;27;20039;-94
2023/03/20 00:38:23;;;;;;;18.48;10.82;;;;;;;10.07;100.00;99090.19;5141022;27;20043;-94
2023/03/20 00:40:49;;;;;;;22.20;10.88;;;;;;;10.00;100.00;99067.34;5143438;27;20039;-94
2023/03/20 00:43:16;;;;;;;20.45;11.32;;;;;;;10.10;100.00;99077.75;5143564;27;20397;-94
2023/03/20 00:45:45;;;;;;;21.92;10.98;;;;;;;10.26;100.00;99105.78;5143299;27;20054;-95
2023/03/20 00:48:14;;;;;;;22.42;11.27;;;;;;;10.09;100.00;99084.88;5142217;27;20051;-95
2023/03/20 00:50:41;;;;;;;;;;;;;;;10.25;100.00;99104.91;5142473;27;20076;-96
2023/03/20 00:53:09;;;;;;;23.00;11.63;;;;;;;10.05;100.00;99072.56;5142098;27;19960;-95
2023/03/20 00:55:35;;;;;;;19.63;11.30;;;;;;;10.19;100.00;99106.81;5141168;27;20047;-94
2023/03/20 00:58:02;;;;;;;20.88;12.50;;;;;;;10.02;100.00;99056.69;5140746;27;20396;-94
2023/03/20 01:00:37;;;;;;;23.48;12.05;;;;;;;9.96;100.00;99049.69;5140556;27;20062;-96
2023/03/20 01:03:11;;;;;;;20.42;11.48;;;;;;;10.01;100.00;99065.53;5141142;27;20138;-95
2023/03/20 01:05:38;;;;;;;19.52;11.40;;;;;;;10.00;100.00;99051.38;5142585;27;20047;-95
2023/03/20 01:08:11;;;;;;;19.52;12.02;;;;;;;10.19;100.00;99088.19;5142607;27;20523;-94
2023/03/20 01:10:37;;;;;;;21.13;11.63;;;;;;;10.03;100.00;99048.66;5141614;27;20506;-95
2023/03/20 01:13:05;;;;;;;23.17;11.75;;;;;;;10.05;100.00;99038.88;5140281;27;20043;-95
2023/03/20 01:15:33;;;;;;;23.02;12.82;;;;;;;9.96;100.00;99028.44;5141049;27;20050;-96
2023/03/20 01:17:59;;;;;;;19.13;10.57;;;;;;;10.03;100.00;99024.75;5139794;27;20035;-96
2023/03/20 01:20:27;;;;;;;18.85;11.48;;;;;;;10.12;100.00;99039.63;5140185;27;20042;-96
2023/03/20 01:22:53;;;;;;;22.25;11.35;;;;;;;9.91;100.00;98998.47;5140784;27;20043;-96
2023/03/20 01:25:26;;;;;;;22.85;13.35;;;;;;;10.16;100.00;99024.50;5140386;27;20085;-95
2023/03/20 01:27:53;;;;;;;25.20;12.35;;;;;;;10.04;100.00;98991.97;5139721;27;20047;-94
2023/03/20 01:30:22;;;;;;;20.52;11.50;;;;;;;10.04;100.00;98981.34;5138674;27;20092;-93
2023/03/20 01:32:48;;;;;;;22.87;12.93;;;;;;;10.06;100.00;98981.28;5138208;27;20048;-95
2023/03/20 01:35:17;;;;;;;23.27;13.15;;;;;;;10.07;100.00;98960.00;5138719;27;20104;-96
2023/03/20 01:37:44;;;;;;;21.98;12.60;;;;;;;9.97;100.00;98945.16;5137828;27;20051;-95
2023/03/20 01:40:30;;;;;;;20.05;12.32;;;;;;;9.92;100.00;98944.41;5137359;27;20035;-96
2023/03/20 01:42:56;;;;;;;27.38;13.70;;;;;;;9.94;100.00;98953.22;5137574;27;20045;-95
2023/03/20 01:45:28;;;;;;;25.40;13.18;;;;;;;9.89;100.00;98960.41;5137116;27;20039;-94
2023/03/20 01:47:54;;;;;;;26.50;14.10;;;;;;;9.91;100.00;98971.91;5137639;27;20065;-94
2023/03/20 01:50:26;;;;;;;28.02;14.13;;;;;;;9.75;100.00;98957.16;5137094;27;20107;-96
2023/03/20 01:52:57;;;;;;;24.30;12.65;;;;;;;9.91;100.00;98973.66;5137408;27;20068;-95
2023/03/20 01:55:24;;;;;;;23.55;12.45;;;;;;;9.77;100.00;98927.00;5137683;27;20110;-94
2023/03/20 01:57:54;;;;;;;23.02;12.30;;;;;;;10.06;100.00;98947.66;5138131;27;20039;-94
2023/03/20 02:00:20;;;;;;;22.05;12.48;;;;;;;10.07;100.00;98938.75;5138455;27;20043;-96
2023/03/20 02:02:47;;;;;;;26.25;14.98;;;;;;;10.04;100.00;98922.00;5139501;28;20070;-95
2023/03/20 02:05:16;;;;;;;24.65;14.13;;;;;;;9.93;100.00;98913.41;5137981;28;20043;-94
2023/03/20 02:07:46;;;;;;;24.92;13.75;;;;;;;9.96;100.00;98916.88;5138476;28;20046;-94
2023/03/20 02:10:14;;;;;;;25.85;13.80;;;;;;;10.06;100.00;98952.97;5138167;28;20035;-96
2023/03/20 02:12:41;;;;;;;26.85;15.43;;;;;;;9.97;100.00;98955.78;5137794;28;20047;-96
2023/03/20 02:15:10;;;;;;;28.60;16.95;;;;;;;9.82;100.00;98940.19;5136961;28;20069;-93
2023/03/20 02:17:36;;;;;;;26.60;14.90;;;;;;;9.76;100.00;98919.06;5137453;28;21465;-95
2023/03/20 02:20:11;;;;;;;27.50;15.35;;;;;;;9.80;100.00;98923.41;5137562;28;20556;-94
2023/03/20 02:23:04;;;;;;;29.55;15.80;;;;;;;9.72;100.00;98898.81;5137486;28;20142;-95
2023/03/20 02:26:04;;;;;;;34.25;16.00;;;;;;;9.92;100.00;98932.91;5138098;28;20096;-93
2023/03/20 02:28:56;;;;;;;31.70;15.35;;;;;;;9.78;100.00;98911.94;5137210;28;20035;-94
2023/03/20 02:31:47;;;;;;;29.95;15.73;;;;;;;9.77;100.00;98910.22;5136889;28;20503;-95
2023/03/20 02:34:38;;;;;;;29.15;14.98;;;;;;;9.82;100.00;98914.53;5138039;28;20074;-95
2023/03/20 02:37:32;;;;;;;27.60;14.70;;;;;;;10.01;100.00;98951.31;5135088;28;20500;-94
2023/03/20 02:40:14;;;;;;;35.25;15.98;;;;;;;9.79;100.00;98913.72;5116636;28;20047;-95
2023/03/20 02:42:47;;;;;;;29.70;15.80;;;;;;;9.78;100.00;98899.56;5118959;28;20092;-95
2023/03/20 02:45:18;;;;;;;31.63;15.63;;;;;;;9.84;100.00;98915.34;5138300;28;20100;-96
2023/03/20 02:47:49;;;;;;;27.05;15.93;;;;;;;9.83;100.00;98900.31;5138556;28;20464;-95
2023/03/20 02:50:20;;;;;;;33.80;17.13;;;;;;;9.82;100.00;98901.25;5138272;28;20073;-96
2023/03/20 02:52:57;;;;;;;30.60;15.75;;;;;;;9.81;100.00;98918.06;5138055;28;20047;-95
2023/03/20 02:55:32;;;;;;;27.85;16.35;;;;;;;9.74;100.00;98913.81;5138067;28;20100;-94
2023/03/20 02:58:06;;;;;;;35.22;17.38;;;;;;;9.85;100.00;98918.91;5137899;28;20054;-94
2023/03/20 03:00:35;;;;;;;28.05;16.25;;;;;;;9.79;100.00;98903.94;5137875;28;20043;-96
2023/03/20 03:03:10;;;;;;;30.88;16.23;;;;;;;9.80;100.00;98919.00;5138752;28;20050;-95
2023/03/20 03:05:41;;;;;;;29.15;15.52;;;;;;;9.81;100.00;98907.44;5138482;28;20067;-95
2023/03/20 03:08:13;;;;;;;27.73;15.63;;;;;;;9.89;100.00;98920.56;5140299;27;20053;-96
2023/03/20 03:10:44;;;;;;;31.38;16.45;;;;;;;9.84;100.00;98914.47;5142793;27;20050;-96
2023/03/20 03:13:14;;;;;;;31.67;15.75;;;;;;;9.82;100.00;98905.66;5142458;27;20123;-95
2023/03/20 03:15:43;;;;;;;34.28;17.40;;;;;;;9.81;100.00;98903.94;5142789;27;20047;-95
2023/03/20 03:18:14;;;;;;;28.52;16.13;;;;;;;9.77;100.00;98895.16;5142388;27;20049;-95
2023/03/20 03:20:46;;;;;;;31.85;17.10;;;;;;;9.91;100.00;98923.19;5142568;27;20130;-95
2023/03/20 03:23:24;;;;;;;35.45;16.58;;;;;;;9.73;100.00;98893.47;5143347;27;20100;-95
2023/03/20 03:25:52;;;;;;;28.08;15.07;;;;;;;9.85;100.00;98887.03;5143829;27;20043;-95
2023/03/20 03:28:25;;;;;;;27.83;14.98;;;;;;;9.73;100.00;98880.19;5144598;27;20408;-96
2023/03/20 03:30:53;;;;;;;30.45;16.45;;;;;;;9.77;100.00;98886.31;5144205;27;20044;-95
2023/03/20 03:33:22;;;;;;;34.22;16.27;;;;;;;9.83;100.00;98904.78;5142180;27;20055;-96
2023/03/20 03:35:50;;;;;;;27.20;15.18;;;;;;;9.83;100.00;98899.47;5141367;27;20058;-96
2023/03/20 03:38:29;;;;;;;33.08;15.85;;;;;;;9.80;100.00;98897.75;5139779;27;20561;-96
2023/03/20 03:41:12;;;;;;;33.05;17.63;;;;;;;9.68;100.00;98894.47;5140845;27;20035;-96
2023/03/20 03:43:42;;;;;;;30.33;15.85;;;;;;;9.65;100.00;98896.28;5141274;27;20373;-96
2023/03/20 03:46:12;;;;;;;36.80;16.65;;;;;;;9.71;100.00;98900.59;5139391;27;20092;-94
2023/03/20 03:48:44;;;;;;;35.78;16.60;;;;;;;9.79;100.00;98916.38;5139288;27;20073;-95
2023/03/20 03:51:15;;;;;;;34.53;16.95;;;;;;;9.73;100.00;98903.22;5139904;27;20081;-95
2023/03/20 03:53:48;;;;;;;37.13;18.38;;;;;;;9.58;100.00;98878.72;5140593;27;20395;-95
2023/03/20 03:56:18;;;;;;;30.85;17.45;;;;;;;9.62;100.00;98885.72;5142248;27;20047;-95
2023/03/20 03:58:48;;;;;;;36.05;16.98;;;;;;;9.73;100.00;98901.44;5140787;27;20092;-95
2023/03/20 04:01:16;;;;;;;34.20;17.63;;;;;;;9.73;100.00;98904.06;5139510;27;20075;-95
2023/03/20 04:03:47;;;;;;;34.83;17.45;;;;;;;9.71;100.00;98889.09;5139820;27;20035;-96
2023/03/20 04:06:16;;;;;;;30.83;16.27;;;;;;;9.82;100.00;98910.97;5139991;27;20039;-95
2023/03/20 04:08:44;;;;;;;29.42;15.80;;;;;;;9.66;100.00;98879.44;5139576;27;20063;-95
2023/03/20 04:11:14;;;;;;;29.92;16.38;;;;;;;9.77;100.00;98904.91;5139297;27;20074;-95
2023/03/20 04:13:40;;;;;;;32.15;16.40;;;;;;;9.66;100.00;98887.41;5138885;27;20043;-95
2023/03/20 04:16:11;;;;;;;33.42;16.70;;;;;;;9.71;100.00;98875.81;5139435;27;20123;-95
2023/03/20 04:18:37;;;;;;;36.53;16.20;;;;;;;9.81;100.00;98878.22;5138795;27;20389;-95
2023/03/20 04:21:04;;;;;;;29.00;15.95;;;;;;;9.61;100.00;98862.75;5139604;27;20134;-94
2023/03/20 04:23:30;;;;;;;28.80;14.90;;;;;;;9.68;100.00;98871.44;5139102;27;20071;-94
2023/03/20 04:25:57;;;;;;;31.95;15.48;;;;;;;9.59;100.00;98867.22;5139028;27;20038;-94
2023/03/20 04:28:23;;;;;;;29.92;15.15;;;;;;;9.54;100.00;98862.91;5139040;27;20066;-96
2023/03/20 04:30:52;;;;;;;27.42;14.60;;;;;;;9.62;100.00;98880.41;5139147;27;20039;-96
2023/03/20 04:33:17;;;;;;;28.63;14.60;;;;;;;9.73;100.00;98892.59;5138635;27;20508;-95
2023/03/20 04:35:43;;;;;;;27.70;14.98;;;;;;;9.58;100.00;98872.56;5138412;27;20053;-95
2023/03/20 04:38:10;;;;;;;27.30;14.23;;;;;;;9.60;100.00;98860.97;5138808;27;20050;-96
2023/03/20 04:40:35;;;;;;;30.60;15.52;;;;;;;9.74;100.00;98873.09;5138458;27;20035;-95
2023/03/20 04:43:03;;;;;;;26.95;14.32;;;;;;;9.82;100.00;98887.06;5138723;27;20035;-96
2023/03/20 04:45:29;;;;;;;26.73;15.00;;;;;;;9.66;100.00;98866.16;5139215;27;20047;-94
2023/03/20 04:47:55;;;;;;;25.63;13.93;;;;;;;9.62;100.00;98853.84;5138509;27;20045;-95
2023/03/20 04:50:21;;;;;;;24.17;13.48;;;;;;;9.74;100.00;98875.78;5138350;27;20492;-96
2023/03/20 04:52:47;;;;;;;24.15;13.38;;;;;;;9.77;100.00;98881.00;5138321;27;20134;-96
2023/03/20 04:55:13;;;;;;;26.83;14.38;;;;;;;9.83;100.00;98894.16;5137369;27;20068;-95
2023/03/20 04:57:39;;;;;;;26.27;13.57;;;;;;;9.59;100.00;98845.13;5137817;27;20058;-94
2023/03/20 05:00:08;;;;;;;25.77;13.75;;;;;;;9.70;100.00;98866.97;5137175;27;20055;-95
2023/03/20 05:02:37;;;;;;;23.85;13.45;;;;;;;9.59;100.00;98853.94;5137507;27;20039;-95
2023/03/20 05:05:04;;;;;;;26.58;13.57;;;;;;;9.62;100.00;98863.63;5138061;27;20043;-96
2023/03/20 05:07:32;;;;;;;27.75;14.10;;;;;;;9.61;100.00;98856.56;5137884;27;20042;-95
2023/03/20 05:09:58;;;;;;;27.30;13.55;;;;;;;9.60;100.00;98860.97;5137670;27;20067;-94
2023/03/20 05:12:25;;;;;;;27.02;13.57;;;;;;;9.61;100.00;98849.47;5136953;27;20070;-95
2023/03/20 05:14:53;;;;;;;26.88;14.30;;;;;;;9.70;100.00;98871.44;5136759;27;20039;-95
2023/03/20 05:17:21;;;;;;;25.25;13.77;;;;;;;9.81;100.00;98893.31;5138005;27;20530;-96
2023/03/20 05:19:49;;;;;;;22.53;13.63;;;;;;;9.68;100.00;98867.94;5138394;27;20067;-95
2023/03/20 05:22:15;;;;;;;30.77;13.63;;;;;;;9.68;100.00;98878.56;5138009;27;20063;-94
2023/03/20 05:24:41;;;;;;;28.52;13.60;;;;;;;9.68;100.00;98874.09;5138022;27;20559;-95
2023/03/20 05:27:07;;;;;;;26.20;13.30;;;;;;;9.60;100.00;98868.94;5137434;27;20066;-95
2023/03/20 05:29:33;;;;;;;29.85;14.32;;;;;;;9.77;100.00;98896.94;5137015;27;20491;-96
2023/03/20 05:32:02;;;;;;;26.63;13.10;;;;;;;9.62;100.00;98869.78;5136869;27;20057;-94
2023/03/20 05:34:29;;;;;;;26.13;13.52;;;;;;;9.79;100.00;98895.97;5138540;27;20065;-94
2023/03/20 05:36:55;;;;;;;28.25;13.38;;;;;;;9.57;100.00;98854.88;5137365;27;20500;-95
2023/03/20 05:39:21;;;;;;;27.67;13.90;;;;;;;9.71;100.00;98874.03;5138417;27;20039;-95
2023/03/20 05:41:47;;;;;;;27.73;13.85;;;;;;;9.79;100.00;98887.16;5142188;27;20031;-94
2023/03/20 05:44:13;;;;;;;24.88;13.10;;;;;;;9.60;100.00;98860.97;5144332;27;20120;-95
2023/03/20 05:46:42;;;;;;;28.60;13.27;;;;;;;9.75;100.00;98894.31;5144532;27;20047;-96
2023/03/20 05:49:08;;;;;;;;;;;;;;;9.83;100.00;98904.78;5142143;27;20237;-96
2023/03/20 05:51:36;;;;;;;24.17;13.02;;;;;;;9.68;100.00;98873.25;5140250;27;20360;-94
2023/03/20 05:54:02;;;;;;;25.95;13.45;;;;;;;9.65;100.00;98875.06;5141041;27;20039;-96
2023/03/20 05:56:28;;;;;;;24.92;13.55;;;;;;;9.56;100.00;98864.59;5142600;27;20099;-96
2023/03/20 05:58:54;;;;;;;26.20;14.73;;;;;;;9.53;100.00;98874.44;5141631;27;20043;-96
2023/03/20 06:01:20;;;;;;;26.40;13.45;;;;;;;9.56;100.00;98875.22;5141710;27;20047;-95
2023/03/20 06:03:47;;;;;;;23.95;13.77;;;;;;;9.58;100.00;98878.72;5141207;28;20070;-95
2023/03/20 06:06:15;;;;;;;34.55;14.68;;;;;;;9.68;100.00;98891.81;5140378;28;20068;-96
2023/03/20 06:08:42;;;;;;;26.35;14.15;;;;;;;9.64;100.00;98881.25;5140185;28;20051;-95
2023/03/20 06:11:10;;;;;;;28.75;15.40;;;;;;;9.66;100.00;98883.88;5129549;28;20472;-95
2023/03/20 06:13:36;;;;;;;28.42;14.65;;;;;;;9.71;100.00;98907.69;5134786;28;20051;-96
2023/03/20 06:16:05;;;;;;;26.60;14.05;;;;;;;9.68;100.00;98886.50;5144806;28;20142;-95
2023/03/20 06:18:31;;;;;;;27.85;14.63;;;;;;;9.78;100.00;98893.34;5143725;28;20155;-96
2023/03/20 06:20:57;;;;;;;37.47;14.77;;;;;;;9.80;100.00;98887.13;5140663;28;20046;-96
2023/03/20 06:23:24;;;;;;;30.02;14.43;;;;;;;9.75;100.00;98885.47;5140145;28;20027;-96
2023/03/20 06:25:52;;;;;;;30.80;14.95;;;;;;;9.95;100.00;98917.75;5141744;28;20046;-95
2023/03/20 06:28:24;;;;;;;30.13;15.90;;;;;;;9.81;100.00;98901.28;5145516;28;20050;-96
2023/03/20 06:30:52;;;;;;;31.15;17.10;;;;;;;9.91;100.00;98913.44;5143435;28;20113;-95
2023/03/20 06:33:17;;;;;;;35.92;15.27;;;;;;;9.83;100.00;98900.31;5142735;28;20054;-96
2023/03/20 06:35:49;;;;;;;30.65;15.75;;;;;;;10.00;100.00;98929.19;5140094;28;20047;-95
2023/03/20 06:38:15;;;;;;;29.38;14.98;;;;;;;9.93;100.00;98938.19;5140629;28;20048;-96
2023/03/20 06:40:42;;;;;;;29.55;14.63;;;;;;;9.81;100.00;98911.91;5140142;28;20444;-96
2023/03/20 06:43:11;;;;;;;32.22;15.77;;;;;;;9.83;100.00;98923.38;5141398;27;20039;-95
2023/03/20 06:45:40;;;;;;;31.77;16.15;;;;;;;9.83;100.00;98936.66;5143040;27;20065;-95
2023/03/20 06:48:07;;;;;;;32.15;15.63;;;;;;;9.87;100.00;98943.66;5144989;27;20077;-95
2023/03/20 06:50:33;;;;;;;28.33;16.48;;;;;;;9.96;100.00;98959.38;5142713;27;20043;-94
2023/03/20 06:52:59;;;;;;;32.30;16.63;;;;;;;9.73;100.00;98919.16;5142723;27;20047;-96
2023/03/20 06:55:28;;;;;;;29.75;17.08;;;;;;;9.68;100.00;98924.56;5142985;27;20043;-96
2023/03/20 06:57:54;;;;;;;30.87;15.87;;;;;;;9.81;100.00;98949.94;5143298;27;20062;-96
2023/03/20 07:00:23;;;;;;;32.45;15.73;;;;;;;9.70;100.00;98935.16;5142851;27;20047;-94
2023/03/20 07:02:49;;;;;;;32.97;16.48;;;;;;;9.88;100.00;98956.88;5141342;27;20045;-95
2023/03/20 07:05:16;;;;;;;32.88;16.27;;;;;;;9.87;100.00;98949.81;5142044;27;20141;-96
2023/03/20 07:07:42;;;;;;;33.13;16.75;;;;;;;10.00;100.00;98950.44;5141196;27;20514;-94
2023/03/20 07:10:08;;;;;;;32.55;17.63;;;;;;;10.12;100.00;98973.19;5140847;27;20044;-96
2023/03/20 07:12:34;;;;;;;33.65;17.10;;;;;;;10.14;100.00;98973.16;5141041;27;20039;-95
2023/03/20 07:15:00;;;;;;;35.88;17.00;;;;;;;10.21;100.00;98972.09;5141180;27;20100;-96
2023/03/20 07:17:28;;;;;;;32.63;16.98;;;;;;;10.16;100.00;98958.94;5140920;27;20050;-95
2023/03/20 07:19:53;;;;;;;32.60;16.48;;;;;;;10.19;100.00;98961.53;5140653;27;20031;-95
2023/03/20 07:22:22;;;;;;;39.95;18.27;;;;;;;10.29;100.00;98967.53;5140444;27;20031;-95
2023/03/20 07:24:47;;;;;;;34.28;19.30;;;;;;;10.36;100.00;98962.94;5137901;27;20047;-96
2023/03/20 07:27:13;;;;;;;35.45;19.05;;;;;;;10.51;100.00;98967.91;5140754;27;20492;-94
2023/03/20 07:29:39;;;;;;;28.98;16.13;;;;;;;10.61;100.00;98968.56;5139574;27;20141;-95
2023/03/20 07:32:05;;;;;;;36.30;19.10;;;;;;;10.71;100.00;98963.91;5140338;27;20035;-96
2023/03/20 07:34:34;;;;;;;29.42;16.17;;;;;;;10.83;100.00;98977.78;5141108;27;20555;-96
2023/03/20 07:37:00;;;;;;;31.50;18.20;;;;;;;10.90;100.00;98968.72;5141495;27;20073;-96
2023/03/20 07:39:26;;;;;;;30.52;17.23;;;;;;;10.93;100.00;98940.28;5142023;27;20492;-96
2023/03/20 07:41:52;;;;;;;27.88;16.48;;;;;;;11.13;100.00;98953.97;5141360;27;20387;-95
2023/03/20 07:44:18;;;;;;;31.48;15.10;;;;;;;11.23;100.00;98936.84;5141302;27;20134;-94
2023/03/20 07:46:46;;;;;;;30.15;15.63;;;;;;;11.39;100.00;98955.06;5141051;27;20042;-96
2023/03/20 07:49:12;;;;;;;29.20;15.50;;;;;;;11.47;100.00;98942.38;5140957;27;20504;-95
2023/03/20 07:51:39;;;;;;;27.02;15.13;;;;;;;11.49;100.00;98948.53;5141009;27;20066;-94
2023/03/20 07:54:05;;;;;;;27.83;15.55;;;;;;;11.48;100.00;98939.69;5140783;27;20047;-96
2023/03/20 07:56:31;;;;;;;31.25;15.55;;;;;;;11.68;100.00;98967.53;5141283;27;20039;-95
2023/03/20 07:58:57;;;;;;;25.55;13.23;;;;;;;11.62;100.00;98965.03;5140989;27;20077;-96
2023/03/20 08:01:26;;;;;;;26.13;13.75;;;;;;;11.34;100.00;98949.81;5141079;27;20027;-94
2023/03/20 08:03:51;;;;;;;27.77;14.60;;;;;;;11.34;100.00;98960.47;5141771;27;20043;-95
2023/03/20 08:06:17;;;;;;;25.92;14.60;;;;;;;11.26;100.00;98954.50;5141425;27;20051;-96
2023/03/20 08:08:45;;;;;;;29.52;14.57;;;;;;;11.19;100.00;98951.13;5141193;27;20043;-96
2023/03/20 08:11:11;;;;;;;32.40;16.13;;;;;;;11.14;100.00;98957.50;5142052;27;20043;-95
2023/03/20 08:13:37;;;;;;;33.72;14.93;;;;;;;11.08;100.00;98962.06;5142430;27;20049;-96
2023/03/20 08:16:05;;;;;;;29.55;14.55;;;;;;;11.00;100.00;98958.72;5141813;27;20059;-96
2023/03/20 08:18:31;;;;;;;28.20;15.02;;;;;;;10.97;100.00;98960.59;5141080;27;20470;-96
2023/03/20 08:21:00;;;;;;;28.00;15.85;;;;;;;11.07;100.00;98962.09;5141204;27;20517;-95
2023/03/20 08:23:29;;;;;;;31.17;16.98;;;;;;;11.03;100.00;98945.31;5140482;27;20043;-96
2023/03/20 08:25:56;;;;;;;33.42;15.90;;;;;;;11.19;100.00;98961.78;5140696;27;20400;-95
2023/03/20 08:28:22;;;;;;;25.45;14.40;;;;;;;11.11;100.00;98942.47;5142679;27;20051;-96
2023/03/20 08:30:48;;;;;;;32.05;14.45;;;;;;;11.14;100.00;98958.34;5142673;27;20137;-96
2023/03/20 08:33:15;;;;;;;24.42;13.13;;;;;;;11.14;100.00;98961.00;5143747;27;20051;-96
2023/03/20 08:35:43;;;;;;;26.75;14.07;;;;;;;11.10;100.00;98960.25;5143301;27;20058;-96
2023/03/20 08:38:12;;;;;;;27.67;14.00;;;;;;;11.06;100.00;98968.31;5143802;27;20137;-96
2023/03/20 08:40:39;;;;;;;28.13;13.30;;;;;;;10.96;100.00;98961.50;5143142;27;20279;-96
2023/03/20 08:43:12;;;;;;;23.00;11.75;;;;;;;11.06;100.00;98994.94;5148800;27;20043;-96
2023/03/20 08:45:44;;;;;;;24.08;11.75;;;;;;;10.88;100.00;98967.88;5149501;27;20051;-96
2023/03/20 08:48:13;;;;;;;15.55;8.43;;;;;;;10.82;100.00;98968.06;5149071;27;20047;-96
2023/03/20 08:50:40;;;;;;;14.82;8.23;;;;;;;10.88;100.00;98978.50;5148680;27;20055;-96
2023/03/20 08:53:09;;;;;;;14.27;7.70;;;;;;;10.84;100.00;98971.56;5152966;27;20043;-96
2023/03/20 08:55:38;;;;;;;13.75;7.95;;;;;;;10.86;100.00;98968.84;5153770;27;20110;-96
2023/03/20 08:58:06;;;;;;;11.40;6.28;;;;;;;10.94;100.00;98971.31;5154305;27;20032;-95
2023/03/20 09:00:36;;;;;;;9.38;5.22;;;;;;;11.20;100.00;99005.25;5155124;27;20051;-95
2023/03/20 09:03:13;;;;;;;11.00;6.55;;;;;;;11.26;100.00;99005.97;5155350;27;20081;-96
2023/03/20 09:05:41;;;;;;;9.00;5.07;;;;;;;11.23;100.00;98973.22;5153744;27;20047;-95
2023/03/20 09:08:08;;;;;;;8.35;5.35;;;;;;;11.24;100.00;98959.88;5154065;27;20039;-96
2023/03/20 09:10:34;;;;;;;8.27;5.10;;;;;;;11.61;100.00;99000.59;5152381;27;20054;-96
2023/03/20 09:13:01;;;;;;;13.48;6.90;;;;;;;11.62;100.00;98984.56;5153442;27;20043;-96
2023/03/20 09:15:29;;;;;;;11.57;6.35;;;;;;;11.58;100.00;98958.06;5153283;27;20562;-96
2023/03/20 09:17:58;;;;;;;12.18;6.65;;;;;;;11.82;100.00;98983.13;5152863;27;20043;-96
2023/03/20 09:20:24;;;;;;;9.93;5.47;;;;;;;11.76;100.00;98959.34;5152127;27;20027;-96
2023/03/20 09:22:58;;;;;;;9.45;5.90;;;;;;;11.88;100.00;98953.69;5152853;27;20053;-96
2023/03/20 09:25:27;;;;;;;9.65;6.18;;;;;;;12.06;100.00;98963.81;5129440;28;20039;-95
2023/03/20 09:27:55;;;;;;;12.15;7.43;;;;;;;12.41;100.00;98996.50;5131399;28;20077;-96
2023/03/20 09:30:22;;;;;;;9.60;6.10;;;;;;;12.49;100.00;98980.25;5130131;28;20076;-96
2023/03/20 09:32:51;;;;;;;7.05;4.13;;;;;;;12.47;100.00;98958.09;5130653;28;20044;-96
2023/03/20 09:35:19;;;;;;;;;;;;;;;12.77;100.00;98990.06;5131611;28;20114;-96
2023/03/20 09:37:46;;;;;;;9.27;4.97;;;;;;;12.84;100.00;98967.59;5132288;28;19924;-96
2023/03/20 09:40:27;;;;;;;9.00;4.70;;;;;;;13.04;100.00;98973.13;5132595;28;20119;-96
2023/03/20 09:43:09;;;;;;;10.70;6.28;;;;;;;13.01;100.00;98940.31;5133051;28;20043;-96
2023/03/20 09:45:46;;;;;;;9.50;4.97;;;;;;;13.07;100.00;98961.47;5131382;28;20044;-96
2023/03/20 09:48:18;;;;;;;9.52;5.20;;;;;;;13.22;100.00;98941.38;5131471;28;20055;-96
2023/03/20 09:50:57;;;;;;;6.47;4.10;;;;;;;13.46;100.00;98955.69;5132392;28;20039;-96
2023/03/20 09:53:30;;;;;;;6.47;3.40;;;;;;;13.58;100.00;98938.38;5134071;28;20062;-96
2023/03/20 09:55:58;;;;;;;7.30;3.75;;;;;;;13.80;100.00;98933.09;5133184;28;20115;-96
2023/03/20 09:58:32;;;;;;;8.38;5.18;;;;;;;13.75;100.00;98928.78;5133326;28;20047;-96
2023/03/20 10:01:06;;;;;;;6.05;4.20;;;;;;;13.58;100.00;98941.03;5133226;28;20130;-96
2023/03/20 10:03:42;;;;;;;7.80;4.00;;;;;;;13.61;100.00;98947.13;5134377;28;20118;-96
2023/03/20 10:06:21;;;;;;;6.40;4.07;;;;;;;13.40;100.00;98929.19;5135069;28;20046;-96
2023/03/20 10:08:50;;;;;;;;;;;;;;;13.50;100.00;98974.22;5135947;28;20107;-96
2023/03/20 10:11:48;;;;;;;7.20;4.18;;;;;;;13.32;100.00;98946.38;5136648;28;19927;-96
2023/03/20 10:14:35;;;;;;;8.18;4.75;;;;;;;13.51;100.00;98973.31;5133903;28;20050;-96
2023/03/20 10:17:20;;;;;;;9.57;4.85;;;;;;;13.43;100.00;98979.88;5133570;28;20059;-96
2023/03/20 10:19:52;;;;;;;7.13;4.35;;;;;;;13.34;100.00;98970.38;5134769;28;20048;-96
2023/03/20 10:22:25;;;;;;;6.28;3.90;;;;;;;13.13;100.00;98945.25;5134637;28;20043;-96
2023/03/20 10:24:58;;;;;;;7.90;4.40;;;;;;;13.12;100.00;98940.84;5136126;28;20051;-96
2023/03/20 10:27:31;;;;;;;10.10;5.13;;;;;;;13.06;100.00;98936.59;5134626;28;20040;-96
2023/03/20 10:30:26;;;;;;;8.50;4.38;;;;;;;12.93;99.93;98930.78;5136348;28;20054;-96
2023/03/20 10:33:06;;;;;;;9.07;4.55;;;;;;;12.94;100.00;98931.66;5138113;28;20043;-96
2023/03/20 10:35:41;;;;;;;6.43;3.42;;;;;;;13.26;100.00;98962.59;5138748;28;20073;-96
2023/03/20 10:38:44;;;;;;;7.22;4.40;;;;;;;13.03;99.07;98923.31;5139492;28;20048;-96
2023/03/20 10:41:22;;;;;;;5.88;3.75;;;;;;;12.92;100.00;98926.38;5140165;28;20052;-96
2023/03/20 10:43:56;;;;;;;;;;;;;;;13.01;100.00;98957.22;5138288;28;20060;-96
2023/03/20 10:46:30;;;;;;;8.38;4.65;;;;;;;12.90;100.00;98927.34;5132279;28;19948;-96
2023/03/20 10:49:01;;;;;;;14.82;6.28;;;;;;;12.95;100.00;98918.25;5137425;28;20095;-96
2023/03/20 10:51:49;;;;;;;7.45;4.50;;;;;;;13.06;100.00;98919.69;5137299;28;20034;-96
2023/03/20 10:54:30;;;;;;;7.18;3.72;;;;;;;13.23;100.00;98936.00;5138126;28;20074;-96
2023/03/20 10:57:03;;;;;;;6.10;3.40;;;;;;;13.17;100.00;98920.19;5137070;28;21055;-96
2023/03/20 10:59:37;;;;;;;6.03;3.45;;;;;;;13.20;100.00;98914.72;5137212;28;20062;-95
2023/03/20 11:02:14;;;;;;;7.13;3.75;;;;;;;13.43;100.00;98931.78;5137296;28;20043;-96
2023/03/20 11:04:42;;;;;;;5.60;3.53;;;;;;;13.54;100.00;98943.81;5137609;28;20047;-96
2023/03/20 11:07:18;;;;;;;5.82;3.20;;;;;;;13.50;100.00;98911.91;5136936;28;20055;-96
2023/03/20 11:10:09;;;;;;;6.50;4.05;;;;;;;13.75;100.00;98930.59;5136759;28;20048;-96
2023/03/20 11:12:39;;;;;;;7.05;3.88;;;;;;;13.64;100.00;98909.63;5137655;28;20027;-96
2023/03/20 11:15:25;;;;;;;6.07;3.75;;;;;;;13.79;99.70;98917.97;5136864;28;20040;-96
2023/03/20 11:17:59;;;;;;;5.75;3.45;;;;;;;13.67;98.17;98884.56;5137924;28;20024;-96
2023/03/20 11:20:32;;;;;;;6.28;3.60;;;;;;;13.90;97.26;98919.31;5136736;28;20048;-94
2023/03/20 11:23:04;;;;;;;5.85;3.50;;;;;;;13.70;94.49;98879.09;5136435;28;20038;-96
2023/03/20 11:25:47;;;;;;;5.40;3.42;;;;;;;13.96;95.74;98902.16;5137203;28;20044;-96
2023/03/20 11:28:37;;;;;;;6.13;3.40;;;;;;;13.95;95.49;98868.34;5136439;28;20044;-96
2023/03/20 11:31:14;;;;;;;4.83;3.20;;;;;;;13.99;94.03;98869.97;5136898;28;20024;-96